Florence, Mississippi
Current Conditions -  °F | °C
As of 6:54 AM on Thursday 27 Nov 2014 (Local Time) from KJAN Reporting Station
Clear Clear  
Wind Chill: 35°   Ceiling: Unl
Heat Index: 41°   Visibility: 10mi
Dew Point: 30°   Wind: 10mph
Humidity: 65%   Direction: 340°NNW
Pressure: 30.42"   Gusts: NA
Location:  32.15°N, 90.13°W
Report Text: KJAN 271254Z 34009KT 10SM CLR 05/M01 A3042 RMK AO2 SLP299 T00501011
Loading
Personal Weather Stations






























Interactive Weather Map New forecast layout! Learn more

10-Day Weather Forecast

Advertisements
Track Severe Weather on mobile